Time;durP1;ratioP1;P1;durP2;ratioP2;P2;SDS_P1;SDS_P2;PMS_P1;PMS_P2;Temp;Humidity;BMP_temperature;BMP_pressure;BME280_temperature;BME280_humidity;BME280_pressure;Samples;Min_cycle;Max_cycle;Signal;HPM_P1;HPM_P2
2022/03/23 00:02:25;;;;;;;10.50;6.28;;;21.80;42.70;;;;;;4991682;28;20058;-72
2022/03/23 00:04:53;;;;;;;13.95;7.05;;;21.80;42.70;;;;;;4992180;28;20206;-71
2022/03/23 00:07:20;;;;;;;13.65;7.03;;;21.80;42.80;;;;;;4990750;28;20030;-71
2022/03/23 00:09:45;;;;;;;11.00;6.80;;;21.70;42.70;;;;;;4990726;28;20022;-72
2022/03/23 00:12:11;;;;;;;10.60;6.57;;;21.70;42.70;;;;;;4991729;28;20491;-72
2022/03/23 00:14:37;;;;;;;9.95;6.15;;;21.80;42.80;;;;;;4990445;28;20157;-71
2022/03/23 00:17:04;;;;;;;12.05;7.28;;;21.80;42.80;;;;;;4990696;28;20154;-72
2022/03/23 00:19:29;;;;;;;16.17;7.38;;;21.80;42.80;;;;;;4990796;28;20141;-71
2022/03/23 00:21:55;;;;;;;12.80;6.63;;;21.80;42.70;;;;;;4991353;28;20527;-72
2022/03/23 00:24:21;;;;;;;10.88;6.85;;;21.80;42.80;;;;;;4990654;28;20041;-71
2022/03/23 00:26:47;;;;;;;16.08;6.97;;;21.80;42.80;;;;;;4990355;28;20494;-71
2022/03/23 00:29:12;;;;;;;16.35;6.97;;;21.80;42.90;;;;;;4991787;28;20109;-72
2022/03/23 00:31:38;;;;;;;13.15;7.50;;;21.80;42.90;;;;;;4991806;28;20504;-71
2022/03/23 00:34:04;;;;;;;13.60;8.10;;;21.70;42.70;;;;;;4990274;28;20456;-71
2022/03/23 00:36:30;;;;;;;15.70;9.18;;;21.70;42.60;;;;;;4988195;28;20038;-71
2022/03/23 00:38:56;;;;;;;17.75;9.48;;;21.70;42.30;;;;;;4973869;28;20502;-71
2022/03/23 00:41:21;;;;;;;16.20;10.20;;;21.80;42.40;;;;;;4991455;28;20109;-71
2022/03/23 00:43:48;;;;;;;14.55;8.63;;;21.80;42.30;;;;;;4989832;28;20122;-72
2022/03/23 00:46:14;;;;;;;13.15;8.70;;;21.80;42.40;;;;;;4974094;28;20030;-71
2022/03/23 00:48:41;;;;;;;14.35;9.05;;;21.80;42.40;;;;;;4976445;28;20026;-71
2022/03/23 00:51:07;;;;;;;13.65;8.10;;;21.80;42.40;;;;;;4994301;28;20034;-72
2022/03/23 00:53:32;;;;;;;12.63;8.45;;;21.80;43.00;;;;;;4994019;28;20036;-72
2022/03/23 00:55:58;;;;;;;14.63;8.00;;;21.80;42.50;;;;;;4994238;28;20104;-71
2022/03/23 00:58:24;;;;;;;12.95;8.27;;;21.80;42.50;;;;;;4994234;28;20025;-71
2022/03/23 01:00:50;;;;;;;16.33;8.23;;;21.80;42.50;;;;;;4994084;28;20088;-71
2022/03/23 01:03:15;;;;;;;14.25;7.68;;;21.80;42.50;;;;;;4993757;28;20078;-71
2022/03/23 01:05:41;;;;;;;14.90;8.77;;;21.80;42.50;;;;;;4994145;28;20019;-72
2022/03/23 01:08:10;;;;;;;13.13;7.53;;;21.80;42.50;;;;;;4994158;28;20045;-72
2022/03/23 01:10:36;;;;;;;13.70;7.68;;;21.80;42.60;;;;;;4995024;28;20046;-72
2022/03/23 01:13:03;;;;;;;12.95;8.05;;;21.80;42.60;;;;;;4993701;28;20282;-72
2022/03/23 01:15:29;;;;;;;14.52;7.90;;;21.80;42.50;;;;;;4993998;28;20030;-72
2022/03/23 01:17:55;;;;;;;14.45;7.78;;;21.80;42.60;;;;;;4993874;28;20027;-72
2022/03/23 01:20:21;;;;;;;13.75;8.30;;;21.80;42.60;;;;;;4977277;28;20125;-72
2022/03/23 01:22:47;;;;;;;13.43;8.00;;;21.80;42.70;;;;;;4977466;28;20034;-73
2022/03/23 01:25:13;;;;;;;12.80;8.20;;;21.80;42.60;;;;;;4993615;28;20023;-72
2022/03/23 01:27:42;;;;;;;13.50;8.27;;;21.80;42.60;;;;;;4994811;28;20026;-72
2022/03/23 01:30:11;;;;;;;11.32;7.05;;;21.80;42.60;;;;;;4972376;28;20519;-72
2022/03/23 01:32:38;;;;;;;15.40;7.68;;;21.90;42.70;;;;;;4994562;28;20242;-73
2022/03/23 01:35:05;;;;;;;11.75;7.30;;;21.90;42.70;;;;;;4976979;28;20487;-73
2022/03/23 01:37:31;;;;;;;12.18;7.70;;;21.90;42.70;;;;;;4977341;28;20093;-72
2022/03/23 01:39:57;;;;;;;13.77;8.18;;;21.90;42.70;;;;;;4993225;28;20026;-72
2022/03/23 01:42:23;;;;;;;15.05;8.05;;;21.90;42.70;;;;;;4994272;28;20027;-73
2022/03/23 01:44:49;;;;;;;14.32;7.90;;;21.90;42.70;;;;;;4993457;28;20046;-72
2022/03/23 01:47:16;;;;;;;13.13;7.72;;;21.80;43.30;;;;;;4993158;28;20030;-72
2022/03/23 01:49:48;;;;;;;12.32;8.45;;;21.90;42.80;;;;;;4977513;28;20034;-73
2022/03/23 01:52:20;;;;;;;14.23;7.85;;;21.90;42.70;;;;;;4992763;28;20395;-72
2022/03/23 01:54:46;;;;;;;11.52;7.45;;;21.90;42.70;;;;;;4993158;28;20097;-73
2022/03/23 01:57:17;;;;;;;13.73;7.80;;;21.90;42.70;;;;;;4992952;28;20142;-73
2022/03/23 01:59:43;;;;;;;11.82;7.47;;;21.90;42.70;;;;;;4991884;28;20109;-72
2022/03/23 02:02:09;;;;;;;11.35;7.22;;;21.90;43.30;;;;;;4992559;28;20459;-72
2022/03/23 02:04:44;;;;;;;15.43;8.02;;;21.90;42.70;;;;;;4977188;28;20041;-72
2022/03/23 02:07:10;;;;;;;12.02;7.22;;;21.90;42.80;;;;;;4992905;28;20069;-72
2022/03/23 02:09:39;;;;;;;15.13;8.25;;;21.90;42.70;;;;;;4992923;28;20049;-73
2022/03/23 02:12:11;;;;;;;12.45;7.35;;;21.90;42.80;;;;;;4992347;28;20089;-72
2022/03/23 02:14:38;;;;;;;12.52;8.02;;;21.90;43.40;;;;;;4992713;28;20034;-72
2022/03/23 02:17:05;;;;;;;11.82;7.47;;;21.90;42.80;;;;;;4992455;28;20040;-72
2022/03/23 02:19:32;;;;;;;12.77;7.78;;;21.90;42.80;;;;;;4976797;28;20039;-72
2022/03/23 02:21:59;;;;;;;14.38;7.30;;;21.90;42.80;;;;;;4976665;28;20141;-72
2022/03/23 02:24:28;;;;;;;12.93;8.07;;;21.90;42.90;;;;;;4992542;28;20471;-73
2022/03/23 02:26:56;;;;;;;11.90;7.07;;;21.90;42.80;;;;;;4976646;28;20034;-73
2022/03/23 02:29:23;;;;;;;15.05;7.85;;;21.90;42.80;;;;;;4976396;28;20137;-72
2022/03/23 02:31:50;;;;;;;13.38;8.13;;;21.90;42.80;;;;;;4993672;28;20113;-72
2022/03/23 02:34:17;;;;;;;11.20;7.55;;;21.90;42.80;;;;;;4992462;28;20034;-72
2022/03/23 02:36:43;;;;;;;13.73;8.63;;;21.90;42.80;;;;;;4993482;28;20042;-72
2022/03/23 02:39:08;;;;;;;11.40;7.32;;;21.90;42.80;;;;;;4993325;28;20023;-72
2022/03/23 02:41:34;;;;;;;13.85;7.55;;;21.90;42.90;;;;;;4992343;28;20101;-72
2022/03/23 02:44:00;;;;;;;13.10;7.38;;;21.90;42.80;;;;;;4975798;28;20100;-73
2022/03/23 02:46:28;;;;;;;12.85;7.38;;;21.90;42.90;;;;;;4960172;28;20402;-72
2022/03/23 02:48:54;;;;;;;12.05;7.22;;;21.90;42.90;;;;;;4993255;28;20486;-72
2022/03/23 02:51:20;;;;;;;14.43;7.70;;;21.90;42.90;;;;;;4993419;28;20034;-72
2022/03/23 03:02:38;;;;;;;12.38;7.47;;;22.00;42.90;;;;;;4975586;28;20041;-73
2022/03/23 03:05:06;;;;;;;12.32;7.38;;;22.00;42.90;;;;;;4975797;28;20080;-72
2022/03/23 03:10:21;;;;;;;13.63;8.10;;;22.00;42.80;;;;;;4991304;28;20038;-72
2022/03/23 03:12:47;;;;;;;15.48;8.20;;;22.00;42.80;;;;;;4992445;28;20427;-72
2022/03/23 03:15:14;;;;;;;12.63;7.75;;;22.00;42.80;;;;;;4991601;28;20586;-72
2022/03/23 03:17:40;;;;;;;13.13;7.65;;;21.90;42.80;;;;;;4975352;28;20030;-72
2022/03/23 03:20:07;;;;;;;11.35;7.63;;;22.00;42.90;;;;;;4991565;28;20046;-72
2022/03/23 03:22:40;;;;;;;13.05;7.20;;;22.00;42.90;;;;;;4991425;28;20041;-72
2022/03/23 03:25:15;;;;;;;13.10;6.97;;;22.00;42.90;;;;;;4992705;28;20077;-72
2022/03/23 03:27:42;;;;;;;14.60;7.38;;;21.90;42.90;;;;;;4991531;28;20034;-72
2022/03/23 03:30:12;;;;;;;10.88;6.93;;;21.90;42.90;;;;;;4992735;28;20030;-72
2022/03/23 03:32:38;;;;;;;14.48;7.28;;;21.90;43.40;;;;;;4974937;28;20503;-72
2022/03/23 03:35:05;;;;;;;14.25;6.97;;;21.90;43.00;;;;;;4992711;28;20472;-71
2022/03/23 03:37:31;;;;;;;16.50;7.05;;;21.90;43.00;;;;;;4992169;28;20044;-71
2022/03/23 03:39:57;;;;;;;12.65;7.65;;;21.90;42.80;;;;;;4974908;28;20125;-71
2022/03/23 03:42:23;;;;;;;13.93;8.63;;;21.90;42.60;;;;;;4990956;28;20026;-71
2022/03/23 03:44:50;;;;;;;13.40;8.10;;;21.90;42.40;;;;;;4992134;28;20054;-71
2022/03/23 03:47:18;;;;;;;12.48;7.30;;;21.90;42.10;;;;;;4991041;28;20034;-71
2022/03/23 03:49:44;;;;;;;17.77;7.97;;;21.90;42.20;;;;;;4991364;28;20031;-71
2022/03/23 03:52:10;;;;;;;13.57;7.95;;;21.80;42.20;;;;;;4991746;28;20049;-71
2022/03/23 03:54:36;;;;;;;15.15;8.15;;;21.90;42.30;;;;;;4991045;28;20038;-71
2022/03/23 03:57:03;;;;;;;19.92;8.25;;;21.80;42.60;;;;;;4992114;28;20033;-70
2022/03/23 03:59:28;;;;;;;13.65;7.70;;;21.80;42.50;;;;;;4974724;28;20039;-71
2022/03/23 04:01:54;;;;;;;13.02;7.50;;;21.80;42.60;;;;;;4990218;28;20033;-70
2022/03/23 04:04:20;;;;;;;12.45;7.30;;;21.80;42.80;;;;;;4992400;28;20399;-70
2022/03/23 04:06:46;;;;;;;14.77;8.00;;;21.80;42.60;;;;;;4990887;28;20038;-71
2022/03/23 04:09:11;;;;;;;12.00;7.40;;;21.90;43.20;;;;;;4992014;28;20041;-71
2022/03/23 04:11:38;;;;;;;11.80;7.78;;;21.90;42.70;;;;;;4992425;28;20510;-71
2022/03/23 04:14:04;;;;;;;16.60;7.38;;;21.90;42.70;;;;;;4991855;28;20030;-70
2022/03/23 04:16:30;;;;;;;13.68;7.00;;;21.90;42.70;;;;;;4991999;28;20145;-71
2022/03/23 04:18:55;;;;;;;12.93;7.40;;;21.90;42.80;;;;;;4991857;28;20129;-71
2022/03/23 04:21:21;;;;;;;17.48;7.32;;;21.80;42.70;;;;;;4991228;28;20033;-70
2022/03/23 04:23:47;;;;;;;15.80;8.20;;;21.90;42.80;;;;;;4989519;28;20387;-70
2022/03/23 04:26:13;;;;;;;11.75;7.28;;;21.80;42.80;;;;;;4990695;28;20033;-70
2022/03/23 04:28:39;;;;;;;17.35;8.05;;;21.80;42.80;;;;;;4991948;28;20117;-71
2022/03/23 04:31:07;;;;;;;14.07;7.57;;;21.80;42.80;;;;;;4990959;28;20117;-71
2022/03/23 04:33:33;;;;;;;13.40;7.28;;;21.80;42.80;;;;;;4974326;28;20034;-71
2022/03/23 04:35:59;;;;;;;11.93;6.85;;;21.80;42.90;;;;;;4991903;28;20026;-71
2022/03/23 04:38:26;;;;;;;12.77;7.45;;;21.80;42.90;;;;;;4991921;28;20030;-71
2022/03/23 04:40:53;;;;;;;11.15;7.30;;;21.80;42.90;;;;;;4990505;28;20121;-71
2022/03/23 04:43:19;;;;;;;14.30;7.65;;;21.80;42.90;;;;;;4991476;28;20023;-71
2022/03/23 04:45:44;;;;;;;10.98;6.97;;;21.80;42.90;;;;;;4991666;28;20026;-71
2022/03/23 04:48:10;;;;;;;13.02;7.05;;;21.80;42.90;;;;;;4991891;28;20640;-71
2022/03/23 04:50:37;;;;;;;11.63;7.20;;;21.80;42.90;;;;;;4990391;28;20034;-71
2022/03/23 04:53:03;;;;;;;12.48;7.50;;;21.80;42.90;;;;;;4990535;28;20034;-71
2022/03/23 04:55:29;;;;;;;12.88;7.30;;;21.80;43.00;;;;;;4990470;28;20124;-71
2022/03/23 04:57:55;;;;;;;11.73;7.00;;;21.80;42.90;;;;;;4974248;28;20114;-71
2022/03/23 05:00:21;;;;;;;15.65;7.93;;;21.80;42.90;;;;;;4991607;28;20038;-71
2022/03/23 05:02:49;;;;;;;12.57;7.00;;;21.80;43.00;;;;;;4991263;28;20030;-71
2022/03/23 05:05:15;;;;;;;11.27;6.70;;;21.80;43.00;;;;;;4991491;28;20022;-71
2022/03/23 05:07:43;;;;;;;11.02;6.82;;;21.80;43.00;;;;;;4990544;28;20033;-71
2022/03/23 05:10:10;;;;;;;12.43;7.15;;;21.80;43.00;;;;;;4991797;28;20577;-71
2022/03/23 05:12:37;;;;;;;11.93;7.18;;;21.90;43.10;;;;;;4991398;28;20038;-71
2022/03/23 05:15:04;;;;;;;12.50;7.25;;;21.90;43.10;;;;;;4991589;28;20030;-71
2022/03/23 05:17:31;;;;;;;10.30;6.90;;;21.90;43.00;;;;;;4991443;28;20042;-71
2022/03/23 05:19:57;;;;;;;12.15;6.95;;;21.90;43.10;;;;;;4991199;28;20027;-71
2022/03/23 05:22:23;;;;;;;12.13;6.93;;;21.90;43.10;;;;;;4991304;28;20101;-71
2022/03/23 05:24:48;;;;;;;9.77;6.70;;;21.90;43.10;;;;;;4991342;28;20034;-71
2022/03/23 05:27:14;;;;;;;12.30;7.30;;;21.90;43.10;;;;;;4991344;28;20360;-71
2022/03/23 05:29:40;;;;;;;12.10;6.57;;;21.90;43.10;;;;;;4991369;28;20113;-70
2022/03/23 05:32:06;;;;;;;13.10;6.78;;;21.90;43.10;;;;;;4989958;28;20034;-71
2022/03/23 05:34:33;;;;;;;12.80;6.97;;;21.90;43.20;;;;;;4991609;28;20089;-71
2022/03/23 05:36:59;;;;;;;11.38;6.85;;;21.90;43.20;;;;;;4994698;28;20449;-71
2022/03/23 05:39:24;;;;;;;12.52;6.90;;;21.90;43.20;;;;;;4993462;28;20118;-72
2022/03/23 05:41:50;;;;;;;10.93;6.60;;;21.90;43.20;;;;;;4994740;28;20081;-72
2022/03/23 05:44:16;;;;;;;11.20;6.78;;;21.90;43.00;;;;;;4994688;28;20507;-72
2022/03/23 05:46:41;;;;;;;13.07;6.97;;;21.90;43.20;;;;;;4994681;28;20034;-72
2022/03/23 05:49:08;;;;;;;13.70;7.32;;;21.90;43.20;;;;;;4994490;28;20037;-71
2022/03/23 05:51:35;;;;;;;11.98;6.80;;;21.90;43.30;;;;;;4994567;28;20160;-72
2022/03/23 05:54:02;;;;;;;12.13;6.72;;;21.90;43.30;;;;;;4993362;28;20034;-72
2022/03/23 05:56:27;;;;;;;12.18;6.53;;;21.90;43.30;;;;;;4994571;28;20035;-72
2022/03/23 05:58:54;;;;;;;11.95;6.90;;;21.90;43.30;;;;;;4994291;28;20116;-71
2022/03/23 06:01:20;;;;;;;13.60;7.05;;;21.90;43.30;;;;;;4994472;28;20039;-71
2022/03/23 06:03:49;;;;;;;10.50;6.78;;;21.90;43.30;;;;;;4993801;28;20034;-72
2022/03/23 06:06:16;;;;;;;11.60;7.00;;;21.90;43.20;;;;;;4994359;28;20030;-72
2022/03/23 06:08:42;;;;;;;11.75;6.93;;;21.90;43.30;;;;;;4994226;28;20018;-71
2022/03/23 06:11:07;;;;;;;13.88;7.70;;;21.90;43.30;;;;;;4994239;28;20542;-72
2022/03/23 06:13:33;;;;;;;10.68;6.88;;;21.90;43.30;;;;;;4994126;28;20027;-72
2022/03/23 06:15:59;;;;;;;12.15;6.95;;;21.90;43.30;;;;;;4994106;28;20030;-72
2022/03/23 06:18:25;;;;;;;12.35;7.30;;;21.90;43.40;;;;;;4994213;28;20068;-71
2022/03/23 06:20:51;;;;;;;10.40;6.30;;;21.90;43.40;;;;;;4992472;28;20030;-71
2022/03/23 06:23:17;;;;;;;11.40;6.80;;;21.90;42.90;;;;;;4976228;28;20466;-71
2022/03/23 06:25:43;;;;;;;10.38;6.30;;;21.90;43.80;;;;;;4994146;28;20105;-71
2022/03/23 06:28:08;;;;;;;12.50;6.80;;;21.90;43.30;;;;;;4993978;28;20027;-71
2022/03/23 06:30:34;;;;;;;12.77;6.95;;;21.90;43.20;;;;;;4993893;28;20031;-72
2022/03/23 06:33:01;;;;;;;10.85;7.18;;;21.90;43.20;;;;;;4993444;28;20049;-71
2022/03/23 06:35:27;;;;;;;10.73;6.47;;;21.90;43.30;;;;;;4992842;28;20450;-71
2022/03/23 06:37:52;;;;;;;10.73;6.57;;;22.00;43.20;;;;;;4993577;28;20034;-72
2022/03/23 06:40:20;;;;;;;12.15;7.10;;;21.90;43.30;;;;;;4993895;28;20088;-72
2022/03/23 06:42:47;;;;;;;10.73;7.15;;;21.90;43.30;;;;;;4992138;28;20065;-71
2022/03/23 06:45:13;;;;;;;10.45;6.85;;;21.90;43.30;;;;;;4991776;28;20543;-72
2022/03/23 06:47:38;;;;;;;11.77;7.15;;;22.00;43.40;;;;;;4993238;28;20031;-71
2022/03/23 06:50:05;;;;;;;11.70;6.82;;;22.00;43.50;;;;;;4993674;28;20364;-71
2022/03/23 06:52:31;;;;;;;11.70;6.95;;;22.00;43.40;;;;;;4993232;28;20046;-72
2022/03/23 06:54:57;;;;;;;11.45;6.57;;;21.90;43.40;;;;;;4993487;28;20534;-72
2022/03/23 06:57:23;;;;;;;11.85;6.93;;;22.00;43.50;;;;;;4993354;28;20110;-71
2022/03/23 06:59:48;;;;;;;12.75;7.45;;;22.00;43.50;;;;;;4993160;28;20502;-72
2022/03/23 07:02:14;;;;;;;10.35;6.35;;;22.00;43.60;;;;;;4990536;28;20030;-72
2022/03/23 07:04:40;;;;;;;12.23;6.82;;;22.00;43.60;;;;;;4993001;28;20513;-71
2022/03/23 07:07:05;;;;;;;11.43;6.75;;;22.00;43.60;;;;;;4992977;28;20101;-72
2022/03/23 07:09:31;;;;;;;11.15;6.70;;;22.00;43.60;;;;;;4993289;28;20030;-70
2022/03/23 07:12:01;;;;;;;10.48;6.55;;;22.00;43.70;;;;;;4992552;28;20164;-71
2022/03/23 07:14:29;;;;;;;12.57;6.85;;;22.10;43.80;;;;;;4993154;28;20117;-72
2022/03/23 07:16:54;;;;;;;11.75;7.07;;;22.00;43.80;;;;;;4992742;28;20030;-72
2022/03/23 07:19:20;;;;;;;12.63;6.78;;;22.10;43.90;;;;;;4992939;28;20506;-72
2022/03/23 07:21:46;;;;;;;10.65;6.47;;;22.10;43.90;;;;;;4991290;28;20045;-72
2022/03/23 07:24:12;;;;;;;11.00;6.53;;;22.10;43.90;;;;;;4991460;28;20022;-73
2022/03/23 07:26:38;;;;;;;11.68;6.80;;;22.10;43.90;;;;;;4992620;28;20029;-72
2022/03/23 07:29:04;;;;;;;17.17;6.72;;;22.10;43.90;;;;;;4992664;28;20109;-72
2022/03/23 07:31:29;;;;;;;13.00;7.32;;;22.20;44.00;;;;;;4991326;28;20395;-72
2022/03/23 07:33:57;;;;;;;12.98;6.65;;;22.20;43.90;;;;;;4991339;28;20027;-71
2022/03/23 07:36:24;;;;;;;10.85;6.80;;;22.20;44.00;;;;;;4990861;28;20035;-72
2022/03/23 07:38:50;;;;;;;11.00;6.60;;;22.20;43.90;;;;;;4989600;28;20041;-72
2022/03/23 07:41:16;;;;;;;11.10;6.97;;;22.30;44.00;;;;;;4992347;28;20077;-71
2022/03/23 07:43:42;;;;;;;9.65;6.40;;;22.20;44.00;;;;;;4992684;28;20058;-72
2022/03/23 07:46:08;;;;;;;11.10;6.55;;;22.30;44.00;;;;;;4991309;28;20081;-71
2022/03/23 07:48:34;;;;;;;11.30;6.68;;;22.30;44.10;;;;;;4991245;28;20493;-72
2022/03/23 07:51:00;;;;;;;11.00;6.38;;;22.30;44.00;;;;;;4991139;28;20038;-71
2022/03/23 07:53:25;;;;;;;11.10;7.10;;;22.30;44.10;;;;;;4992595;28;20065;-70
2022/03/23 07:55:51;;;;;;;10.95;6.55;;;22.30;44.10;;;;;;4992210;28;20558;-70
2022/03/23 07:58:17;;;;;;;14.02;6.78;;;22.30;44.10;;;;;;4990921;28;20368;-71
2022/03/23 08:00:43;;;;;;;11.23;6.60;;;22.30;44.20;;;;;;4992180;28;20026;-70
2022/03/23 08:03:11;;;;;;;15.35;7.40;;;22.40;44.30;;;;;;4990856;28;20065;-71
2022/03/23 08:05:38;;;;;;;12.75;6.68;;;22.30;44.20;;;;;;4992156;28;20023;-71
2022/03/23 08:08:05;;;;;;;11.10;6.80;;;22.40;44.30;;;;;;4992143;28;20030;-71
2022/03/23 08:10:31;;;;;;;10.77;6.90;;;22.40;44.30;;;;;;4990985;28;20034;-71
2022/03/23 08:12:57;;;;;;;11.73;6.53;;;22.40;44.40;;;;;;4990402;28;20552;-71
2022/03/23 08:15:24;;;;;;;14.65;6.72;;;22.40;44.50;;;;;;4992182;28;20435;-71
2022/03/23 08:17:50;;;;;;;11.27;6.10;;;22.40;44.40;;;;;;4990689;28;20380;-66
2022/03/23 08:23:12;;;;;;;21.48;12.32;;;22.30;45.50;;;;;;4991668;28;20395;-66
2022/03/23 08:25:42;;;;;;;38.70;15.30;;;22.10;38.70;;;;;;4990725;28;20031;-66
2022/03/23 08:28:09;;;;;;;28.75;16.02;;;21.90;39.20;;;;;;4991777;28;20475;-65
2022/03/23 08:30:36;;;;;;;26.90;14.05;;;21.80;36.00;;;;;;4991876;28;20044;-65
2022/03/23 08:33:03;;;;;;;28.77;15.38;;;21.70;35.90;;;;;;4990264;28;20097;-65
2022/03/23 08:35:29;;;;;;;25.85;14.65;;;21.60;31.50;;;;;;4991842;28;20563;-65
2022/03/23 08:37:55;;;;;;;30.52;14.45;;;21.50;31.20;;;;;;4990351;28;20034;-65
2022/03/23 08:40:21;;;;;;;24.48;15.50;;;21.50;32.30;;;;;;4991614;28;20030;-65
2022/03/23 08:42:46;;;;;;;24.85;15.27;;;21.50;32.20;;;;;;4988386;28;20054;-65
2022/03/23 08:45:12;;;;;;;23.90;13.93;;;21.50;33.10;;;;;;4991321;28;20027;-65
2022/03/23 08:47:41;;;;;;;25.98;13.20;;;21.50;34.60;;;;;;4989274;28;20022;-65
2022/03/23 08:50:09;;;;;;;21.13;14.07;;;21.60;34.50;;;;;;4989067;28;20031;-65
2022/03/23 08:52:36;;;;;;;22.60;14.55;;;21.60;34.00;;;;;;4989994;28;20036;-67
2022/03/23 08:55:05;;;;;;;22.40;14.13;;;21.70;32.60;;;;;;4991724;28;20027;-71
2022/03/23 08:57:31;;;;;;;29.67;14.23;;;21.70;33.00;;;;;;4991554;28;20030;-71
2022/03/23 08:59:57;;;;;;;31.55;14.02;;;21.80;31.90;;;;;;4991518;28;20034;-71
2022/03/23 09:02:23;;;;;;;23.90;13.70;;;21.80;31.20;;;;;;4991289;28;20029;-71
2022/03/23 09:04:48;;;;;;;23.90;13.48;;;21.90;30.80;;;;;;4991498;28;20069;-71
2022/03/23 09:07:14;;;;;;;21.42;13.55;;;22.00;31.30;;;;;;4990202;28;20072;-71
2022/03/23 09:09:40;;;;;;;21.70;12.73;;;22.00;31.90;;;;;;4993737;28;20034;-71
2022/03/23 09:12:06;;;;;;;21.85;12.15;;;22.00;32.20;;;;;;4993783;28;20038;-71
2022/03/23 09:14:32;;;;;;;23.27;11.95;;;22.10;32.70;;;;;;4995483;28;20109;-71
2022/03/23 09:16:57;;;;;;;18.15;11.55;;;22.10;33.10;;;;;;4977576;28;20038;-71
2022/03/23 09:19:23;;;;;;;21.67;11.77;;;22.10;33.50;;;;;;4994853;28;20026;-71
2022/03/23 09:21:50;;;;;;;21.25;11.80;;;22.20;34.40;;;;;;4995227;28;20561;-71
2022/03/23 09:24:19;;;;;;;21.30;11.98;;;22.20;34.00;;;;;;4993664;28;20022;-71
2022/03/23 09:26:45;;;;;;;20.92;10.82;;;22.20;34.30;;;;;;4993956;28;20069;-71
2022/03/23 09:29:14;;;;;;;21.58;11.07;;;22.20;34.60;;;;;;4994889;28;20030;-71
2022/03/23 09:31:39;;;;;;;23.73;11.30;;;22.20;34.70;;;;;;4994986;28;20123;-71
2022/03/23 09:34:06;;;;;;;20.27;11.25;;;22.20;34.90;;;;;;4994528;28;20035;-71
2022/03/23 09:39:24;;;;;;;19.65;11.20;;;22.30;35.40;;;;;;4978868;28;20046;-71
2022/03/23 09:41:53;;;;;;;20.60;11.27;;;22.30;35.70;;;;;;4993378;28;20027;-71
2022/03/23 09:44:20;;;;;;;16.85;9.93;;;22.30;36.00;;;;;;4993190;28;20026;-71
2022/03/23 09:46:45;;;;;;;19.05;11.10;;;22.30;36.20;;;;;;4994537;28;20027;-71
2022/03/23 09:49:12;;;;;;;19.05;10.73;;;22.30;36.20;;;;;;4977782;28;20038;-71
2022/03/23 09:51:39;;;;;;;18.63;10.40;;;22.40;36.40;;;;;;4994588;28;20057;-71
2022/03/23 09:54:05;;;;;;;17.38;10.35;;;22.40;36.60;;;;;;4994211;28;20037;-71
2022/03/23 09:56:31;;;;;;;19.10;10.05;;;22.40;36.70;;;;;;4993086;28;20054;-71
2022/03/23 09:58:57;;;;;;;17.90;10.38;;;22.40;36.90;;;;;;4994431;28;20030;-71
2022/03/23 10:01:29;;;;;;;18.70;10.27;;;22.40;36.90;;;;;;4993080;28;20033;-72
2022/03/23 10:04:08;;;;;;;20.33;10.25;;;22.40;37.20;;;;;;4994095;28;20034;-71
2022/03/23 10:07:11;;;;;;;17.65;9.90;;;22.40;37.30;;;;;;4994338;28;20467;-72
2022/03/23 10:10:03;;;;;;;20.17;10.65;;;22.40;37.50;;;;;;4994097;28;20112;-71
2022/03/23 10:13:06;;;;;;;19.80;10.45;;;22.40;37.60;;;;;;4994113;28;20039;-71
2022/03/23 10:16:09;;;;;;;18.45;10.25;;;22.40;37.80;;;;;;4994262;28;20037;-71
2022/03/23 10:18:55;;;;;;;18.38;9.85;;;22.40;37.80;;;;;;4992959;28;20040;-72
2022/03/23 10:21:24;;;;;;;19.23;10.27;;;22.40;38.10;;;;;;4993075;28;20479;-71
2022/03/23 10:24:12;;;;;;;19.98;10.70;;;22.40;38.20;;;;;;4993683;28;20046;-71
2022/03/23 10:26:41;;;;;;;19.60;10.40;;;22.40;38.30;;;;;;4950288;28;20034;-72
2022/03/23 10:29:22;;;;;;;21.90;10.73;;;22.40;38.50;;;;;;4993913;28;20058;-71
2022/03/23 10:32:05;;;;;;;24.48;11.65;;;22.40;38.70;;;;;;4993847;28;20509;-72
2022/03/23 10:34:49;;;;;;;21.35;11.00;;;22.40;39.40;;;;;;4992498;28;20037;-72
2022/03/23 10:37:29;;;;;;;22.13;11.30;;;22.40;38.90;;;;;;4995731;23;20082;-73
2022/03/23 10:39:58;;;;;;;21.05;10.93;;;22.40;39.10;;;;;;4956107;28;20446;-73
2022/03/23 10:42:27;;;;;;;24.63;11.35;;;22.40;39.20;;;;;;4972069;28;20019;-72
2022/03/23 10:45:11;;;;;;;22.58;11.07;;;22.40;39.40;;;;;;4974155;28;20038;-73
2022/03/23 10:47:39;;;;;;;21.38;11.45;;;22.40;39.50;;;;;;4953693;28;20524;-73
2022/03/23 10:50:11;;;;;;;22.92;12.13;;;22.40;39.60;;;;;;4953281;29;20548;-73
2022/03/23 10:52:53;;;;;;;21.10;11.40;;;22.40;39.70;;;;;;4954416;29;20035;-72
2022/03/23 10:55:20;;;;;;;20.67;11.10;;;22.40;39.60;;;;;;4953380;29;20035;-73
2022/03/23 10:57:55;;;;;;;20.45;10.65;;;22.40;39.70;;;;;;4953531;28;20046;-73
2022/03/23 11:00:35;;;;;;;20.42;10.85;;;22.40;39.90;;;;;;4954528;29;20425;-73
2022/03/23 11:03:04;;;;;;;20.48;11.25;;;22.40;39.80;;;;;;4969153;28;20185;-73
2022/03/23 11:05:44;;;;;;;21.25;11.27;;;22.40;39.90;;;;;;4969187;28;20501;-73
2022/03/23 11:08:12;;;;;;;20.02;10.50;;;22.30;40.00;;;;;;4952984;28;20063;-73
2022/03/23 11:16:31;;;;;;;24.00;10.60;;;22.30;40.30;;;;;;4954263;28;20489;-74
2022/03/23 11:19:06;;;;;;;20.27;10.88;;;22.30;40.20;;;;;;4954177;29;20114;-73
2022/03/23 11:21:32;;;;;;;20.95;10.77;;;22.30;40.30;;;;;;4954263;29;20086;-73
2022/03/23 11:23:58;;;;;;;21.13;10.85;;;22.30;40.40;;;;;;4953737;29;20031;-73
2022/03/23 11:26:26;;;;;;;19.35;10.48;;;22.30;40.40;;;;;;4953955;28;20034;-73
2022/03/23 11:28:55;;;;;;;22.27;10.55;;;22.20;40.40;;;;;;4953956;29;20403;-73
2022/03/23 11:31:21;;;;;;;20.88;11.20;;;22.30;40.50;;;;;;4953719;28;20381;-73
2022/03/23 11:33:52;;;;;;;22.60;11.27;;;22.30;40.60;;;;;;4953425;29;20036;-73
2022/03/23 11:36:45;;;;;;;21.60;11.10;;;22.30;41.10;;;;;;4952746;28;20034;-73
2022/03/23 11:39:15;;;;;;;20.15;10.75;;;22.30;40.80;;;;;;4949377;29;20074;-73
2022/03/23 11:41:46;;;;;;;18.13;9.80;;;22.40;41.00;;;;;;4954227;28;20639;-73
2022/03/23 11:44:15;;;;;;;21.98;10.05;;;22.40;40.80;;;;;;4953478;28;20035;-72
2022/03/23 11:46:42;;;;;;;27.30;11.37;;;22.40;41.20;;;;;;4952759;28;20495;-74
2022/03/23 11:49:27;;;;;;;21.85;11.05;;;22.40;41.60;;;;;;4953651;28;20070;-74
2022/03/23 11:52:01;;;;;;;24.25;12.10;;;22.40;41.70;;;;;;4953904;28;20078;-73
2022/03/23 11:57:54;;;;;;;38.80;12.07;;;22.30;40.00;;;;;;4953378;28;20027;-74
2022/03/23 12:00:22;;;;;;;33.47;12.73;;;22.30;39.90;;;;;;4952560;28;20534;-72
2022/03/23 12:02:48;;;;;;;26.80;12.27;;;22.30;40.50;;;;;;4951503;28;20039;-72
2022/03/23 12:05:35;;;;;;;21.27;11.65;;;22.30;40.50;;;;;;4953155;28;20102;-72
2022/03/23 12:08:02;;;;;;;25.85;11.68;;;22.30;40.50;;;;;;4953348;28;20549;-72
2022/03/23 12:10:31;;;;;;;25.63;11.70;;;22.20;40.40;;;;;;4952808;28;20432;-72
2022/03/23 12:13:15;;;;;;;30.88;11.75;;;22.20;39.70;;;;;;4952894;28;20492;-72
2022/03/23 12:15:57;;;;;;;22.88;11.75;;;22.20;39.10;;;;;;4968311;28;20095;-73
2022/03/23 12:18:58;;;;;;;28.02;10.98;;;22.20;38.30;;;;;;4952896;29;20031;-72
2022/03/23 12:21:29;;;;;;;31.55;11.32;;;22.20;38.10;;;;;;4953257;29;20073;-73
2022/03/23 12:24:04;;;;;;;22.95;11.75;;;22.10;37.30;;;;;;4936482;29;20035;-72
2022/03/23 12:26:34;;;;;;;18.58;11.38;;;22.10;36.50;;;;;;4953286;28;20035;-72
2022/03/23 12:29:23;;;;;;;21.52;11.80;;;22.10;36.40;;;;;;4953098;28;20035;-72
2022/03/23 12:31:49;;;;;;;20.63;11.40;;;22.10;35.80;;;;;;4952861;28;20098;-72
2022/03/23 12:34:27;;;;;;;20.42;11.35;;;22.10;35.30;;;;;;4952967;29;20027;-73
2022/03/23 12:36:57;;;;;;;25.25;11.55;;;22.10;34.80;;;;;;4951754;29;20039;-73
2022/03/23 12:39:31;;;;;;;22.73;11.52;;;22.10;34.70;;;;;;4952062;28;20067;-73
2022/03/23 12:41:59;;;;;;;22.85;11.07;;;22.10;34.00;;;;;;4952568;29;20031;-72
2022/03/23 12:44:31;;;;;;;20.35;11.40;;;22.10;33.90;;;;;;4953412;28;20038;-73
2022/03/23 12:47:06;;;;;;;25.13;12.07;;;22.10;33.10;;;;;;4956822;29;20042;-73
2022/03/23 12:58:11;;;;;;;24.77;11.82;;;22.10;35.20;;;;;;4956759;29;20035;-73
2022/03/23 13:00:43;;;;;;;25.05;12.55;;;22.20;35.50;;;;;;4971623;28;20500;-73
2022/03/23 13:03:12;;;;;;;29.70;12.75;;;22.10;33.30;;;;;;4955334;29;20061;-73
2022/03/23 13:05:58;;;;;;;30.70;12.43;;;22.20;33.20;;;;;;4971608;28;20027;-73
2022/03/23 13:08:30;;;;;;;31.33;13.15;;;22.20;33.40;;;;;;4956263;28;20027;-73
2022/03/23 13:11:00;;;;;;;36.55;16.63;;;22.20;34.10;;;;;;4956560;28;20031;-73
2022/03/23 13:13:27;;;;;;;35.38;14.55;;;22.30;35.20;;;;;;4955124;29;20134;-73
2022/03/23 13:15:53;;;;;;;267.85;116.07;;;22.30;34.10;;;;;;4955096;29;20400;-73